Anvik, Alaska
Current Conditions -  °F | °C
As of 12:56 PM on Monday 24 Nov 2014 (Local Time) from PANV Reporting Station
Overcast Overcast  
Wind Chill:   Ceiling: 3700
Heat Index: 10°   Visibility: 10mi
Dew Point:   Wind: 7mph
Humidity: 73%   Direction: 40°NE
Pressure: 29.77"   Gusts: NA
Location:  62.66°N, 160.21°W
Report Text: PANV 242156Z AUTO 04006KT 10SM SCT029 OVC037 M12/M16 A2977 RMK AO1
Loading
Personal Weather Stations






























Interactive Weather Map New forecast layout! Learn more

10-Day Weather Forecast

Advertisements
Track Severe Weather on mobile